createdAt,value
2023-03-20T00:01:01.225Z,99762.19
2023-03-20T00:06:03.000Z,99770.75
2023-03-20T00:11:04.793Z,99778.16
2023-03-20T00:16:06.853Z,99775.81
2023-03-20T00:21:18.918Z,99781.31
2023-03-20T00:26:26.660Z,99781.50
2023-03-20T00:31:31.453Z,99775.47
2023-03-20T00:36:33.630Z,99777.84
2023-03-20T00:41:38.226Z,99777.50
2023-03-20T00:46:40.520Z,99782.53
2023-03-20T00:51:42.503Z,99770.28
2023-03-20T00:56:48.840Z,99775.28
2023-03-20T01:01:51.176Z,99777.81
2023-03-20T01:06:52.877Z,99768.72
2023-03-20T01:11:54.536Z,99769.06
2023-03-20T01:16:56.279Z,99769.56
2023-03-20T01:21:57.948Z,99766.66
2023-03-20T01:27:03.604Z,99763.13
2023-03-20T01:32:12.039Z,99768.47
2023-03-20T01:37:23.935Z,99759.94
2023-03-20T01:42:26.362Z,99762.63
2023-03-20T01:47:28.823Z,99763.16
2023-03-20T01:52:34.488Z,99764.22
2023-03-20T01:57:37.635Z,99777.16
2023-03-20T02:02:40.994Z,99773.97
2023-03-20T02:07:47.680Z,99765.91
2023-03-20T02:12:51.815Z,99778.84
2023-03-20T02:18:02.911Z,99773.81
2023-03-20T02:23:10.823Z,99774.13
2023-03-20T02:28:59.912Z,99777.50
2023-03-20T02:34:37.118Z,99774.47
2023-03-20T02:39:45.041Z,99775.81
2023-03-20T02:45:01.898Z,99779.16
2023-03-20T02:50:13.960Z,99781.84
2023-03-20T02:55:31.836Z,99781.84
2023-03-20T03:01:10.523Z,99780.53
2023-03-20T03:06:23.088Z,99774.94
2023-03-20T03:11:24.788Z,99763.88
2023-03-20T03:16:34.115Z,99770.59
2023-03-20T03:21:39.295Z,99783.38
2023-03-20T03:26:42.361Z,99765.06
2023-03-20T03:31:45.777Z,99764.41
2023-03-20T03:37:00.003Z,99759.19
2023-03-20T03:42:07.659Z,99762.91
2023-03-20T03:47:21.575Z,99770.63
2023-03-20T03:52:25.026Z,99766.22
2023-03-20T03:57:36.598Z,99767.91
2023-03-20T04:02:44.058Z,99775.66
2023-03-20T04:07:47.070Z,99772.31
2023-03-20T04:12:48.741Z,99771.28
2023-03-20T04:17:50.371Z,99778.66
2023-03-20T04:22:53.186Z,99782.88
2023-03-20T04:27:55.853Z,99789.09
2023-03-20T04:33:30.102Z,99782.19
2023-03-20T04:38:39.473Z,99782.88
2023-03-20T04:43:41.254Z,99779.34
2023-03-20T04:48:43.335Z,99784.72
2023-03-20T04:53:46.491Z,99789.78
2023-03-20T04:58:48.415Z,99789.56
2023-03-20T05:03:52.277Z,99798.97
2023-03-20T05:08:55.025Z,99795.09
2023-03-20T05:13:58.543Z,99809.03
2023-03-20T05:19:11.254Z,99809.03
2023-03-20T05:24:48.047Z,99820.28
2023-03-20T05:30:13.510Z,99829.03
2023-03-20T05:35:33.948Z,99833.53
2023-03-20T05:40:58.573Z,99836.22
2023-03-20T05:46:10.555Z,99844.97
2023-03-20T05:51:29.118Z,99846.31
2023-03-20T05:56:43.267Z,99844.16
2023-03-20T06:02:05.757Z,99843.63
2023-03-20T06:07:10.341Z,99848.28
2023-03-20T06:12:13.928Z,99847.59
2023-03-20T06:17:15.872Z,99855.59
2023-03-20T06:22:22.106Z,99847.97
2023-03-20T06:27:24.071Z,99855.88
2023-03-20T06:32:25.925Z,99862.69
2023-03-20T06:37:31.022Z,99858.59
2023-03-20T06:42:41.328Z,99869.34
2023-03-20T06:47:44.468Z,99865.38
2023-03-20T06:52:46.624Z,99866.81
2023-03-20T06:58:07.201Z,99852.47
2023-03-20T07:03:11.707Z,99846.47
2023-03-20T07:08:15.235Z,99853.66
2023-03-20T07:13:16.926Z,99857.69
2023-03-20T07:18:19.125Z,99857.84
2023-03-20T07:23:21.413Z,99863.94
2023-03-20T07:28:23.340Z,99866.56
2023-03-20T07:33:34.653Z,99878.38
2023-03-20T07:38:36.671Z,99884.09
2023-03-20T07:43:44.845Z,99880.47
2023-03-20T07:48:58.182Z,99889.69
2023-03-20T07:54:00.090Z,99889.19
2023-03-20T07:59:01.962Z,99901.94
2023-03-20T08:04:05.455Z,99893.97
2023-03-20T08:09:07.379Z,99886.09
2023-03-20T08:14:09.112Z,99885.88
2023-03-20T08:19:10.880Z,99885.84
2023-03-20T08:24:12.695Z,99901.34
2023-03-20T08:29:17.364Z,99896.81
2023-03-20T08:34:19.067Z,99896.47
2023-03-20T08:39:20.737Z,99904.63
2023-03-20T08:44:22.363Z,99896.50
2023-03-20T08:49:24.577Z,99898.06
2023-03-20T08:54:27.586Z,99899.16
2023-03-20T08:59:29.550Z,99908.94
2023-03-20T09:04:31.354Z,99900.78
2023-03-20T09:09:33.452Z,99902.84
2023-03-20T09:14:36.471Z,99914.25
2023-03-20T09:19:40.122Z,99912.47
2023-03-20T09:24:41.862Z,99903.59
2023-03-20T09:29:43.867Z,99905.09
2023-03-20T09:34:45.477Z,99913.22
2023-03-20T09:39:47.186Z,99921.25
2023-03-20T09:45:11.512Z,99917.84
2023-03-20T09:50:24.180Z,99925.56
2023-03-20T09:55:33.053Z,99934.66
2023-03-20T10:00:36.971Z,99939.88
2023-03-20T10:05:44.989Z,99936.44
2023-03-20T10:11:28.452Z,99935.00
2023-03-20T10:16:51.552Z,99923.25
2023-03-20T10:22:02.740Z,99927.63
2023-03-20T10:27:18.454Z,99936.38
2023-03-20T10:32:58.425Z,99925.09
2023-03-20T10:38:06.197Z,99932.00
2023-03-20T10:43:19.869Z,99924.97
2023-03-20T10:48:27.393Z,99921.97
2023-03-20T10:53:41.948Z,99914.59
2023-03-20T10:58:47.236Z,99919.19
2023-03-20T11:03:48.873Z,99910.41
2023-03-20T11:08:52.728Z,99912.50
2023-03-20T11:13:54.856Z,99918.91
2023-03-20T11:18:56.814Z,99925.38
2023-03-20T11:23:58.881Z,99917.19
2023-03-20T11:29:00.717Z,99909.94
2023-03-20T11:34:14.547Z,99915.06
2023-03-20T11:39:23.394Z,99904.19
2023-03-20T11:44:34.294Z,99898.41
2023-03-20T11:49:47.969Z,99899.28
2023-03-20T11:54:52.701Z,99894.75
2023-03-20T11:59:56.251Z,99894.06
2023-03-20T12:05:01.422Z,99890.66
2023-03-20T12:10:08.671Z,99874.78
2023-03-20T12:15:16.094Z,99879.00
2023-03-20T12:20:27.550Z,99881.34
2023-03-20T12:25:50.775Z,99883.88
2023-03-20T12:30:58.971Z,99869.34
2023-03-20T12:36:03.416Z,99870.34
2023-03-20T12:41:20.572Z,99869.63
2023-03-20T12:46:51.580Z,99874.59
2023-03-20T12:52:20.983Z,99868.81
2023-03-20T12:57:45.571Z,99864.91
2023-03-20T13:03:19.763Z,99860.66
2023-03-20T13:08:59.051Z,99855.66
2023-03-20T13:14:06.133Z,99853.44
2023-03-20T13:19:19.780Z,99845.22
2023-03-20T13:24:29.552Z,99844.84
2023-03-20T13:30:03.484Z,99836.66
2023-03-20T13:35:29.453Z,99826.38
2023-03-20T13:40:38.556Z,99828.13
2023-03-20T13:45:42.546Z,99824.06
2023-03-20T13:51:05.460Z,99826.97
2023-03-20T13:56:25.644Z,99824.38
2023-03-20T14:01:45.843Z,99821.06
2023-03-20T14:06:56.894Z,99819.28
2023-03-20T14:12:03.555Z,99819.97
2023-03-20T14:17:15.359Z,99816.25
2023-03-20T14:22:23.609Z,99809.16
2023-03-20T14:27:45.129Z,99815.66
2023-03-20T14:32:57.891Z,99839.00
2023-03-20T14:38:23.729Z,99830.44
2023-03-20T14:43:48.421Z,99832.91
2023-03-20T14:48:54.115Z,99824.56
2023-03-20T14:53:57.966Z,99835.28
2023-03-20T14:59:04.306Z,99827.91
2023-03-20T15:04:20.929Z,99823.25
2023-03-20T15:09:25.318Z,99830.63
2023-03-20T15:14:30.038Z,99820.97
2023-03-20T15:19:33.623Z,99828.69
2023-03-20T15:24:35.349Z,99824.72
2023-03-20T15:29:36.977Z,99818.53
2023-03-20T15:34:41.116Z,99825.34
2023-03-20T15:39:45.772Z,99821.34
2023-03-20T15:44:50.139Z,99813.44
2023-03-20T15:49:56.042Z,99814.75
2023-03-20T15:54:59.901Z,99810.56
2023-03-20T16:00:02.911Z,99832.03
2023-03-20T16:05:15.666Z,99825.06
2023-03-20T16:10:35.110Z,99818.97
2023-03-20T16:15:36.957Z,99825.28
2023-03-20T16:20:42.227Z,99824.53
2023-03-20T16:25:43.854Z,99825.53
2023-03-20T16:30:45.705Z,99824.03
2023-03-20T16:35:51.037Z,99814.81
2023-03-20T16:41:25.149Z,99820.94
2023-03-20T16:46:28.683Z,99820.97
2023-03-20T16:51:31.516Z,99821.34
2023-03-20T16:56:40.560Z,99818.31
2023-03-20T17:01:45.102Z,99816.31
2023-03-20T17:06:54.015Z,99821.00
2023-03-20T17:12:18.419Z,99826.09
2023-03-20T17:17:22.270Z,99824.25
2023-03-20T17:22:25.777Z,99827.47
2023-03-20T17:27:29.248Z,99813.53
2023-03-20T17:32:30.946Z,99830.69
2023-03-20T17:37:32.622Z,99837.06
2023-03-20T17:42:34.328Z,99831.69
2023-03-20T17:47:36.296Z,99826.31
2023-03-20T17:52:37.934Z,99813.19
2023-03-20T17:57:40.361Z,99818.75
2023-03-20T18:02:41.993Z,99820.44
2023-03-20T18:07:44.399Z,99818.09
2023-03-20T18:12:46.068Z,99816.75
2023-03-20T18:17:47.682Z,99826.34
2023-03-20T18:22:50.914Z,99823.63
2023-03-20T18:27:53.661Z,99828.34
2023-03-20T18:32:55.441Z,99821.59
2023-03-20T18:37:58.197Z,99825.31
2023-03-20T18:43:00.388Z,99823.13
2023-03-20T18:48:03.942Z,99822.28
2023-03-20T18:53:07.062Z,99823.13
2023-03-20T18:58:21.195Z,99828.50
2023-03-20T19:03:24.532Z,99831.53
2023-03-20T19:08:26.240Z,99843.63
2023-03-20T19:13:27.930Z,99842.25
2023-03-20T19:18:29.578Z,99836.88
2023-03-20T19:23:31.735Z,99837.91
2023-03-20T19:28:41.660Z,99834.22
2023-03-20T19:33:43.434Z,99823.78
2023-03-20T19:38:45.362Z,99828.16
2023-03-20T19:43:53.046Z,99826.81
2023-03-20T19:48:57.798Z,99825.13
2023-03-20T19:53:59.549Z,99818.25
2023-03-20T19:59:01.600Z,99830.72
2023-03-20T20:04:04.155Z,99820.97
2023-03-20T20:09:05.862Z,99812.22
2023-03-20T20:14:09.798Z,99818.81
2023-03-20T20:19:12.094Z,99812.25
2023-03-20T20:24:16.060Z,99810.75
2023-03-20T20:29:18.989Z,99811.28
2023-03-20T20:39:43.697Z,99799.97
2023-03-20T20:44:45.378Z,99809.22
2023-03-20T20:49:47.584Z,99808.88
2023-03-20T20:54:49.381Z,99809.53
2023-03-20T20:59:54.178Z,99811.56
2023-03-20T21:04:56.097Z,99804.19
2023-03-20T21:09:57.702Z,99800.50
2023-03-20T21:14:59.490Z,99814.44
2023-03-20T21:20:01.135Z,99817.25
2023-03-20T21:25:14.231Z,99810.06
2023-03-20T21:30:18.723Z,99817.28
2023-03-20T21:35:20.566Z,99813.97
2023-03-20T21:40:22.448Z,99814.28
2023-03-20T21:46:18.802Z,99805.00
2023-03-20T21:51:18.823Z,99816.81
2023-03-20T21:57:07.952Z,99819.97
2023-03-20T22:01:58.740Z,99832.75
2023-03-20T22:13:14.285Z,99832.03
2023-03-20T22:18:12.283Z,99839.59
2023-03-20T22:29:17.642Z,99838.06
2023-03-20T22:49:45.259Z,99855.34
2023-03-20T22:54:46.865Z,99844.63
2023-03-20T22:59:48.463Z,99836.06
2023-03-20T23:04:52.006Z,99840.06
2023-03-20T23:09:53.661Z,99825.28
2023-03-20T23:14:55.594Z,99820.03
2023-03-20T23:20:10.448Z,99824.22
2023-03-20T23:25:21.060Z,99825.22
2023-03-20T23:30:37.891Z,99831.28
2023-03-20T23:35:43.530Z,99832.81
2023-03-20T23:40:49.168Z,99833.97
2023-03-20T23:45:51.026Z,99822.38
2023-03-20T23:50:53.741Z,99825.75
2023-03-20T23:55:57.309Z,99818.72
